sensor_id;sensor_type;location;lat;lon;timestamp;temperature;humidity
20827;DHT22;10574;52.508;13.236;2022-10-31T00:01:30;11.00;99.90
20827;DHT22;10574;52.508;13.236;2022-10-31T00:03:53;10.90;99.90
20827;DHT22;10574;52.508;13.236;2022-10-31T00:06:22;10.90;99.90
20827;DHT22;10574;52.508;13.236;2022-10-31T00:09:00;10.90;99.90
20827;DHT22;10574;52.508;13.236;2022-10-31T00:11:23;10.90;99.90
20827;DHT22;10574;52.508;13.236;2022-10-31T00:13:51;10.90;99.90
20827;DHT22;10574;52.508;13.236;2022-10-31T00:16:22;10.90;99.90
20827;DHT22;10574;52.508;13.236;2022-10-31T00:18:51;10.90;99.90
20827;DHT22;10574;52.508;13.236;2022-10-31T00:21:20;10.90;99.90
20827;DHT22;10574;52.508;13.236;2022-10-31T00:23:48;11.00;99.90
20827;DHT22;10574;52.508;13.236;2022-10-31T00:26:16;11.00;99.90
20827;DHT22;10574;52.508;13.236;2022-10-31T00:28:43;11.00;99.90
20827;DHT22;10574;52.508;13.236;2022-10-31T00:31:12;11.00;99.90
20827;DHT22;10574;52.508;13.236;2022-10-31T00:33:41;11.00;99.90
20827;DHT22;10574;52.508;13.236;2022-10-31T00:36:11;11.00;99.90
20827;DHT22;10574;52.508;13.236;2022-10-31T00:38:39;11.00;99.90
20827;DHT22;10574;52.508;13.236;2022-10-31T00:41:07;11.00;99.90
20827;DHT22;10574;52.508;13.236;2022-10-31T00:43:35;11.00;99.90
20827;DHT22;10574;52.508;13.236;2022-10-31T00:46:03;11.00;99.90
20827;DHT22;10574;52.508;13.236;2022-10-31T00:48:30;11.00;99.90
20827;DHT22;10574;52.508;13.236;2022-10-31T00:50:58;11.00;99.90
20827;DHT22;10574;52.508;13.236;2022-10-31T00:53:29;11.00;99.90
20827;DHT22;10574;52.508;13.236;2022-10-31T00:55:57;10.90;99.90
20827;DHT22;10574;52.508;13.236;2022-10-31T00:58:25;10.90;99.90
20827;DHT22;10574;52.508;13.236;2022-10-31T01:00:53;10.90;99.90
20827;DHT22;10574;52.508;13.236;2022-10-31T01:03:26;11.00;99.90
20827;DHT22;10574;52.508;13.236;2022-10-31T01:06:09;11.00;99.90
20827;DHT22;10574;52.508;13.236;2022-10-31T01:08:38;11.00;99.90
20827;DHT22;10574;52.508;13.236;2022-10-31T01:11:17;11.00;99.90
20827;DHT22;10574;52.508;13.236;2022-10-31T01:13:45;11.10;99.90
20827;DHT22;10574;52.508;13.236;2022-10-31T01:16:17;11.20;99.90
20827;DHT22;10574;52.508;13.236;2022-10-31T01:18:45;11.20;99.90
20827;DHT22;10574;52.508;13.236;2022-10-31T01:21:19;11.20;99.90
20827;DHT22;10574;52.508;13.236;2022-10-31T01:23:46;11.20;99.90
20827;DHT22;10574;52.508;13.236;2022-10-31T01:26:16;11.20;99.90
20827;DHT22;10574;52.508;13.236;2022-10-31T01:28:47;11.20;99.90
20827;DHT22;10574;52.508;13.236;2022-10-31T01:31:17;11.20;99.90
20827;DHT22;10574;52.508;13.236;2022-10-31T01:33:45;11.40;99.90
20827;DHT22;10574;52.508;13.236;2022-10-31T01:36:18;11.60;99.90
20827;DHT22;10574;52.508;13.236;2022-10-31T01:38:43;11.90;99.90
20827;DHT22;10574;52.508;13.236;2022-10-31T01:41:13;12.10;99.90
20827;DHT22;10574;52.508;13.236;2022-10-31T01:43:56;12.10;99.90
20827;DHT22;10574;52.508;13.236;2022-10-31T01:48:53;12.10;99.90
20827;DHT22;10574;52.508;13.236;2022-10-31T01:51:25;12.20;99.90
20827;DHT22;10574;52.508;13.236;2022-10-31T01:53:55;12.20;99.90
20827;DHT22;10574;52.508;13.236;2022-10-31T01:56:23;12.30;99.90
20827;DHT22;10574;52.508;13.236;2022-10-31T01:58:54;12.40;99.90
20827;DHT22;10574;52.508;13.236;2022-10-31T02:01:23;12.40;99.90
20827;DHT22;10574;52.508;13.236;2022-10-31T02:03:51;12.40;99.90
20827;DHT22;10574;52.508;13.236;2022-10-31T02:06:35;12.50;99.90
20827;DHT22;10574;52.508;13.236;2022-10-31T02:09:04;12.50;99.90
20827;DHT22;10574;52.508;13.236;2022-10-31T02:11:33;12.60;99.90
20827;DHT22;10574;52.508;13.236;2022-10-31T02:14:03;12.50;99.90
20827;DHT22;10574;52.508;13.236;2022-10-31T02:16:30;12.60;99.90
20827;DHT22;10574;52.508;13.236;2022-10-31T02:18:58;12.50;99.90
20827;DHT22;10574;52.508;13.236;2022-10-31T02:21:45;12.50;99.90
20827;DHT22;10574;52.508;13.236;2022-10-31T02:30:03;12.60;99.90
20827;DHT22;10574;52.508;13.236;2022-10-31T02:33:04;12.60;99.90
20827;DHT22;10574;52.508;13.236;2022-10-31T02:36:03;12.50;99.90
20827;DHT22;10574;52.508;13.236;2022-10-31T02:41:34;12.40;99.90
20827;DHT22;10574;52.508;13.236;2022-10-31T02:44:07;12.40;99.90
20827;DHT22;10574;52.508;13.236;2022-10-31T02:46:47;12.40;99.90
20827;DHT22;10574;52.508;13.236;2022-10-31T02:49:21;12.50;99.90
20827;DHT22;10574;52.508;13.236;2022-10-31T02:51:48;12.50;99.90
20827;DHT22;10574;52.508;13.236;2022-10-31T02:54:23;12.50;99.90
20827;DHT22;10574;52.508;13.236;2022-10-31T02:57:01;12.50;99.90
20827;DHT22;10574;52.508;13.236;2022-10-31T02:59:29;12.50;99.90
20827;DHT22;10574;52.508;13.236;2022-10-31T03:02:09;12.50;99.90
20827;DHT22;10574;52.508;13.236;2022-10-31T03:07:29;12.60;99.90
20827;DHT22;10574;52.508;13.236;2022-10-31T03:10:26;12.60;99.90
20827;DHT22;10574;52.508;13.236;2022-10-31T03:15:33;12.60;99.90
20827;DHT22;10574;52.508;13.236;2022-10-31T03:18:04;12.60;99.90
20827;DHT22;10574;52.508;13.236;2022-10-31T03:20:40;12.60;99.90
20827;DHT22;10574;52.508;13.236;2022-10-31T03:23:08;12.60;99.90
20827;DHT22;10574;52.508;13.236;2022-10-31T03:25:37;12.50;99.90
20827;DHT22;10574;52.508;13.236;2022-10-31T03:28:06;12.50;99.90
20827;DHT22;10574;52.508;13.236;2022-10-31T03:30:36;12.40;99.90
20827;DHT22;10574;52.508;13.236;2022-10-31T03:33:08;12.50;99.90
20827;DHT22;10574;52.508;13.236;2022-10-31T03:35:36;12.40;99.90
20827;DHT22;10574;52.508;13.236;2022-10-31T03:38:06;12.40;99.90
20827;DHT22;10574;52.508;13.236;2022-10-31T03:40:35;12.40;99.90
20827;DHT22;10574;52.508;13.236;2022-10-31T03:43:13;12.40;99.90
20827;DHT22;10574;52.508;13.236;2022-10-31T03:45:44;12.30;99.90
20827;DHT22;10574;52.508;13.236;2022-10-31T03:48:12;12.30;99.90
20827;DHT22;10574;52.508;13.236;2022-10-31T03:50:48;12.30;99.90
20827;DHT22;10574;52.508;13.236;2022-10-31T03:53:26;12.30;99.90
20827;DHT22;10574;52.508;13.236;2022-10-31T03:56:02;12.20;99.90
20827;DHT22;10574;52.508;13.236;2022-10-31T03:58:48;12.20;99.90
20827;DHT22;10574;52.508;13.236;2022-10-31T04:01:17;12.20;99.90
20827;DHT22;10574;52.508;13.236;2022-10-31T04:03:46;12.30;99.90
20827;DHT22;10574;52.508;13.236;2022-10-31T04:06:16;12.20;99.90
20827;DHT22;10574;52.508;13.236;2022-10-31T04:08:59;12.20;99.90
20827;DHT22;10574;52.508;13.236;2022-10-31T04:11:30;12.20;99.90
20827;DHT22;10574;52.508;13.236;2022-10-31T04:14:00;12.20;99.90
20827;DHT22;10574;52.508;13.236;2022-10-31T04:16:29;12.20;99.90
20827;DHT22;10574;52.508;13.236;2022-10-31T04:18:57;12.10;99.90
20827;DHT22;10574;52.508;13.236;2022-10-31T04:21:28;12.10;99.90
20827;DHT22;10574;52.508;13.236;2022-10-31T04:23:56;12.10;99.90
20827;DHT22;10574;52.508;13.236;2022-10-31T04:26:24;12.10;99.90
20827;DHT22;10574;52.508;13.236;2022-10-31T04:28:52;12.10;99.90
20827;DHT22;10574;52.508;13.236;2022-10-31T04:31:19;12.10;99.90
20827;DHT22;10574;52.508;13.236;2022-10-31T04:33:47;12.10;99.90
20827;DHT22;10574;52.508;13.236;2022-10-31T04:36:14;12.00;99.90
20827;DHT22;10574;52.508;13.236;2022-10-31T04:38:42;12.00;99.90
20827;DHT22;10574;52.508;13.236;2022-10-31T04:41:10;12.00;99.90
20827;DHT22;10574;52.508;13.236;2022-10-31T04:43:37;12.00;99.90
20827;DHT22;10574;52.508;13.236;2022-10-31T04:46:05;12.00;99.90
20827;DHT22;10574;52.508;13.236;2022-10-31T04:48:32;12.00;99.90
20827;DHT22;10574;52.508;13.236;2022-10-31T04:51:00;12.00;99.90
20827;DHT22;10574;52.508;13.236;2022-10-31T04:53:29;12.00;99.90
20827;DHT22;10574;52.508;13.236;2022-10-31T04:55:58;11.90;99.90
20827;DHT22;10574;52.508;13.236;2022-10-31T04:58:27;12.00;99.90
20827;DHT22;10574;52.508;13.236;2022-10-31T05:00:56;11.90;99.90
20827;DHT22;10574;52.508;13.236;2022-10-31T05:03:23;11.90;99.90
20827;DHT22;10574;52.508;13.236;2022-10-31T05:05:51;11.90;99.90
20827;DHT22;10574;52.508;13.236;2022-10-31T05:08:18;11.90;99.90
20827;DHT22;10574;52.508;13.236;2022-10-31T05:10:46;11.80;99.90
20827;DHT22;10574;52.508;13.236;2022-10-31T05:13:13;11.80;99.90
20827;DHT22;10574;52.508;13.236;2022-10-31T05:15:41;11.80;99.90
20827;DHT22;10574;52.508;13.236;2022-10-31T05:18:09;11.80;99.90
20827;DHT22;10574;52.508;13.236;2022-10-31T05:20:36;11.70;99.90
20827;DHT22;10574;52.508;13.236;2022-10-31T05:23:04;11.70;99.90
20827;DHT22;10574;52.508;13.236;2022-10-31T05:25:31;11.70;99.90
20827;DHT22;10574;52.508;13.236;2022-10-31T05:27:59;11.70;99.90
20827;DHT22;10574;52.508;13.236;2022-10-31T05:30:30;11.70;99.90
20827;DHT22;10574;52.508;13.236;2022-10-31T05:32:58;11.70;99.90
20827;DHT22;10574;52.508;13.236;2022-10-31T05:35:28;11.70;99.90
20827;DHT22;10574;52.508;13.236;2022-10-31T05:37:56;11.70;99.90
20827;DHT22;10574;52.508;13.236;2022-10-31T05:40:28;11.70;99.90
20827;DHT22;10574;52.508;13.236;2022-10-31T05:42:56;11.70;99.90
20827;DHT22;10574;52.508;13.236;2022-10-31T05:45:26;11.70;99.90
20827;DHT22;10574;52.508;13.236;2022-10-31T05:47:55;11.60;99.90
20827;DHT22;10574;52.508;13.236;2022-10-31T05:50:24;11.60;99.90
20827;DHT22;10574;52.508;13.236;2022-10-31T05:53:05;11.60;99.90
20827;DHT22;10574;52.508;13.236;2022-10-31T05:55:33;11.60;99.90
20827;DHT22;10574;52.508;13.236;2022-10-31T05:58:00;11.60;99.90
20827;DHT22;10574;52.508;13.236;2022-10-31T06:00:29;11.60;99.90
20827;DHT22;10574;52.508;13.236;2022-10-31T06:03:02;11.60;99.90
20827;DHT22;10574;52.508;13.236;2022-10-31T06:05:31;11.60;99.90
20827;DHT22;10574;52.508;13.236;2022-10-31T06:07:59;11.60;99.90
20827;DHT22;10574;52.508;13.236;2022-10-31T06:10:27;11.60;99.90
20827;DHT22;10574;52.508;13.236;2022-10-31T06:12:55;11.60;99.90
20827;DHT22;10574;52.508;13.236;2022-10-31T06:15:22;11.60;99.90
20827;DHT22;10574;52.508;13.236;2022-10-31T06:18:01;11.50;99.90
20827;DHT22;10574;52.508;13.236;2022-10-31T06:20:30;11.60;99.90
20827;DHT22;10574;52.508;13.236;2022-10-31T06:22:57;11.50;99.90
20827;DHT22;10574;52.508;13.236;2022-10-31T06:25:25;11.60;99.90
20827;DHT22;10574;52.508;13.236;2022-10-31T06:27:53;11.60;99.90
20827;DHT22;10574;52.508;13.236;2022-10-31T06:30:21;11.60;99.90
20827;DHT22;10574;52.508;13.236;2022-10-31T06:32:48;11.70;99.90
20827;DHT22;10574;52.508;13.236;2022-10-31T06:35:16;11.70;99.90
20827;DHT22;10574;52.508;13.236;2022-10-31T06:37:52;11.80;99.90
20827;DHT22;10574;52.508;13.236;2022-10-31T06:40:21;11.80;99.90
20827;DHT22;10574;52.508;13.236;2022-10-31T06:42:59;11.80;99.90
20827;DHT22;10574;52.508;13.236;2022-10-31T06:45:25;11.90;99.90
20827;DHT22;10574;52.508;13.236;2022-10-31T06:47:56;11.90;99.90
20827;DHT22;10574;52.508;13.236;2022-10-31T06:50:24;11.90;99.90
20827;DHT22;10574;52.508;13.236;2022-10-31T06:52:53;12.00;99.90
20827;DHT22;10574;52.508;13.236;2022-10-31T06:55:21;12.00;99.90
20827;DHT22;10574;52.508;13.236;2022-10-31T06:57:53;12.10;99.90
20827;DHT22;10574;52.508;13.236;2022-10-31T07:00:21;12.20;99.90
20827;DHT22;10574;52.508;13.236;2022-10-31T07:03:03;12.30;99.90
20827;DHT22;10574;52.508;13.236;2022-10-31T07:05:31;12.40;99.90
20827;DHT22;10574;52.508;13.236;2022-10-31T07:08:01;12.40;99.90
20827;DHT22;10574;52.508;13.236;2022-10-31T07:10:31;12.50;99.90
20827;DHT22;10574;52.508;13.236;2022-10-31T07:13:00;12.70;99.90
20827;DHT22;10574;52.508;13.236;2022-10-31T07:15:29;12.80;99.90
20827;DHT22;10574;52.508;13.236;2022-10-31T07:18:07;12.90;99.90
20827;DHT22;10574;52.508;13.236;2022-10-31T07:20:31;13.10;99.90
20827;DHT22;10574;52.508;13.236;2022-10-31T07:22:58;13.20;99.90
20827;DHT22;10574;52.508;13.236;2022-10-31T07:25:27;13.30;99.90
20827;DHT22;10574;52.508;13.236;2022-10-31T07:27:55;13.40;99.90
20827;DHT22;10574;52.508;13.236;2022-10-31T07:30:23;13.40;99.90
20827;DHT22;10574;52.508;13.236;2022-10-31T07:32:51;13.50;99.90
20827;DHT22;10574;52.508;13.236;2022-10-31T07:35:21;13.50;99.90
20827;DHT22;10574;52.508;13.236;2022-10-31T07:37:50;13.50;99.90
20827;DHT22;10574;52.508;13.236;2022-10-31T07:40:18;13.50;99.90
20827;DHT22;10574;52.508;13.236;2022-10-31T07:42:48;13.50;99.90
20827;DHT22;10574;52.508;13.236;2022-10-31T07:45:18;13.50;99.90
20827;DHT22;10574;52.508;13.236;2022-10-31T07:47:51;13.50;99.90
20827;DHT22;10574;52.508;13.236;2022-10-31T07:50:22;13.60;99.90
20827;DHT22;10574;52.508;13.236;2022-10-31T07:53:00;13.70;99.90
20827;DHT22;10574;52.508;13.236;2022-10-31T07:55:29;13.80;99.90
20827;DHT22;10574;52.508;13.236;2022-10-31T07:58:03;13.80;99.90
20827;DHT22;10574;52.508;13.236;2022-10-31T08:00:27;13.80;99.90
20827;DHT22;10574;52.508;13.236;2022-10-31T08:03:10;13.80;99.90
20827;DHT22;10574;52.508;13.236;2022-10-31T08:05:28;13.90;99.90
20827;DHT22;10574;52.508;13.236;2022-10-31T08:07:56;13.80;99.90
20827;DHT22;10574;52.508;13.236;2022-10-31T08:10:25;13.80;99.90
20827;DHT22;10574;52.508;13.236;2022-10-31T08:13:01;13.80;99.90
20827;DHT22;10574;52.508;13.236;2022-10-31T08:15:29;13.80;99.90
20827;DHT22;10574;52.508;13.236;2022-10-31T08:17:57;13.80;99.90
20827;DHT22;10574;52.508;13.236;2022-10-31T08:20:25;13.80;99.90
20827;DHT22;10574;52.508;13.236;2022-10-31T08:22:54;13.80;99.90
20827;DHT22;10574;52.508;13.236;2022-10-31T08:25:23;13.80;99.90
20827;DHT22;10574;52.508;13.236;2022-10-31T08:27:52;13.70;99.90
20827;DHT22;10574;52.508;13.236;2022-10-31T08:30:21;13.70;99.90
20827;DHT22;10574;52.508;13.236;2022-10-31T08:32:58;13.80;99.90
20827;DHT22;10574;52.508;13.236;2022-10-31T08:35:28;13.80;99.90
20827;DHT22;10574;52.508;13.236;2022-10-31T08:37:56;13.80;99.90
20827;DHT22;10574;52.508;13.236;2022-10-31T08:40:25;13.80;99.90
20827;DHT22;10574;52.508;13.236;2022-10-31T08:43:04;13.80;99.90
20827;DHT22;10574;52.508;13.236;2022-10-31T08:45:30;13.90;99.90
20827;DHT22;10574;52.508;13.236;2022-10-31T08:47:59;13.90;99.90
20827;DHT22;10574;52.508;13.236;2022-10-31T08:50:29;14.00;99.90
20827;DHT22;10574;52.508;13.236;2022-10-31T08:53:07;14.10;99.90
20827;DHT22;10574;52.508;13.236;2022-10-31T08:55:30;14.20;99.90
20827;DHT22;10574;52.508;13.236;2022-10-31T08:57:58;14.40;99.90
20827;DHT22;10574;52.508;13.236;2022-10-31T09:00:26;14.50;99.90
20827;DHT22;10574;52.508;13.236;2022-10-31T09:03:06;14.50;99.90
20827;DHT22;10574;52.508;13.236;2022-10-31T09:05:29;14.60;99.90
20827;DHT22;10574;52.508;13.236;2022-10-31T09:07:58;14.60;99.90
20827;DHT22;10574;52.508;13.236;2022-10-31T09:10:27;14.60;99.90
20827;DHT22;10574;52.508;13.236;2022-10-31T09:12:57;14.60;99.90
20827;DHT22;10574;52.508;13.236;2022-10-31T09:15:25;14.70;99.90
20827;DHT22;10574;52.508;13.236;2022-10-31T09:17:53;14.70;99.90
20827;DHT22;10574;52.508;13.236;2022-10-31T09:20:21;14.70;99.90
20827;DHT22;10574;52.508;13.236;2022-10-31T09:23:00;14.80;99.90
20827;DHT22;10574;52.508;13.236;2022-10-31T09:25:28;14.90;99.90
20827;DHT22;10574;52.508;13.236;2022-10-31T09:28:00;15.00;99.90
20827;DHT22;10574;52.508;13.236;2022-10-31T09:30:29;15.00;99.90
20827;DHT22;10574;52.508;13.236;2022-10-31T09:33:03;15.10;99.90
20827;DHT22;10574;52.508;13.236;2022-10-31T09:35:30;15.20;99.90
20827;DHT22;10574;52.508;13.236;2022-10-31T09:38:05;15.40;99.90
20827;DHT22;10574;52.508;13.236;2022-10-31T09:43:41;15.50;99.90
20827;DHT22;10574;52.508;13.236;2022-10-31T09:46:31;15.60;99.90
20827;DHT22;10574;52.508;13.236;2022-10-31T09:52:22;15.70;99.90
20827;DHT22;10574;52.508;13.236;2022-10-31T09:55:08;15.80;99.90
20827;DHT22;10574;52.508;13.236;2022-10-31T09:56:58;16.10;99.90
20827;DHT22;10574;52.508;13.236;2022-10-31T09:59:35;16.30;99.90
20827;DHT22;10574;52.508;13.236;2022-10-31T10:02:38;16.40;99.90
20827;DHT22;10574;52.508;13.236;2022-10-31T10:05:11;16.40;99.90
20827;DHT22;10574;52.508;13.236;2022-10-31T10:07:47;16.60;99.90
20827;DHT22;10574;52.508;13.236;2022-10-31T10:13:29;16.90;99.90
20827;DHT22;10574;52.508;13.236;2022-10-31T10:18:56;17.30;99.90
20827;DHT22;10574;52.508;13.236;2022-10-31T10:30:04;17.20;99.90
20827;DHT22;10574;52.508;13.236;2022-10-31T10:32:42;17.30;99.90
20827;DHT22;10574;52.508;13.236;2022-10-31T10:35:22;17.30;99.90
20827;DHT22;10574;52.508;13.236;2022-10-31T10:37:46;17.40;99.90
20827;DHT22;10574;52.508;13.236;2022-10-31T10:40:18;17.30;99.90
20827;DHT22;10574;52.508;13.236;2022-10-31T10:42:55;17.50;99.90
20827;DHT22;10574;52.508;13.236;2022-10-31T10:45:37;17.70;99.90
20827;DHT22;10574;52.508;13.236;2022-10-31T10:50:57;17.80;99.90
20827;DHT22;10574;52.508;13.236;2022-10-31T10:56:21;17.90;99.90
20827;DHT22;10574;52.508;13.236;2022-10-31T10:58:46;18.00;99.90
20827;DHT22;10574;52.508;13.236;2022-10-31T11:01:15;18.10;99.90
20827;DHT22;10574;52.508;13.236;2022-10-31T11:03:43;18.10;99.90
20827;DHT22;10574;52.508;13.236;2022-10-31T11:09:11;18.20;99.90
20827;DHT22;10574;52.508;13.236;2022-10-31T11:11:39;18.30;99.90
20827;DHT22;10574;52.508;13.236;2022-10-31T11:14:12;18.20;99.90
20827;DHT22;10574;52.508;13.236;2022-10-31T11:16:48;18.20;99.90
20827;DHT22;10574;52.508;13.236;2022-10-31T11:19:23;18.20;99.90
20827;DHT22;10574;52.508;13.236;2022-10-31T11:21:52;18.30;99.90
20827;DHT22;10574;52.508;13.236;2022-10-31T11:24:22;18.20;99.90
20827;DHT22;10574;52.508;13.236;2022-10-31T11:26:51;18.30;99.90
20827;DHT22;10574;52.508;13.236;2022-10-31T11:29:26;18.30;99.90
20827;DHT22;10574;52.508;13.236;2022-10-31T11:31:55;18.30;99.90
20827;DHT22;10574;52.508;13.236;2022-10-31T11:34:37;18.30;99.90
20827;DHT22;10574;52.508;13.236;2022-10-31T11:37:40;18.30;99.90
20827;DHT22;10574;52.508;13.236;2022-10-31T11:40:04;18.30;99.90
20827;DHT22;10574;52.508;13.236;2022-10-31T11:42:38;18.20;99.90
20827;DHT22;10574;52.508;13.236;2022-10-31T11:45:14;18.00;99.90
20827;DHT22;10574;52.508;13.236;2022-10-31T11:47:49;18.00;99.90
20827;DHT22;10574;52.508;13.236;2022-10-31T11:50:18;18.00;99.90
20827;DHT22;10574;52.508;13.236;2022-10-31T11:52:43;18.00;99.90
20827;DHT22;10574;52.508;13.236;2022-10-31T11:55:29;18.10;99.90
20827;DHT22;10574;52.508;13.236;2022-10-31T11:57:50;18.10;99.90
20827;DHT22;10574;52.508;13.236;2022-10-31T12:00:27;18.00;99.90
20827;DHT22;10574;52.508;13.236;2022-10-31T12:03:15;18.00;99.90
20827;DHT22;10574;52.508;13.236;2022-10-31T12:05:42;18.00;99.90
20827;DHT22;10574;52.508;13.236;2022-10-31T12:08:16;17.90;99.90
20827;DHT22;10574;52.508;13.236;2022-10-31T12:13:58;18.00;99.90
20827;DHT22;10574;52.508;13.236;2022-10-31T12:22:02;17.90;99.90
20827;DHT22;10574;52.508;13.236;2022-10-31T12:27:36;18.00;99.90
20827;DHT22;10574;52.508;13.236;2022-10-31T12:30:19;17.90;99.90
20827;DHT22;10574;52.508;13.236;2022-10-31T12:36:18;17.90;99.90
20827;DHT22;10574;52.508;13.236;2022-10-31T12:38:49;17.90;99.90
20827;DHT22;10574;52.508;13.236;2022-10-31T12:41:27;17.80;99.90
20827;DHT22;10574;52.508;13.236;2022-10-31T12:44:06;17.80;99.90
20827;DHT22;10574;52.508;13.236;2022-10-31T12:49:30;17.80;99.90
20827;DHT22;10574;52.508;13.236;2022-10-31T12:57:36;17.90;99.90
20827;DHT22;10574;52.508;13.236;2022-10-31T13:00:14;17.90;99.90
20827;DHT22;10574;52.508;13.236;2022-10-31T13:02:54;17.90;99.90
20827;DHT22;10574;52.508;13.236;2022-10-31T13:05:39;17.80;99.90
20827;DHT22;10574;52.508;13.236;2022-10-31T13:08:10;17.70;99.90
20827;DHT22;10574;52.508;13.236;2022-10-31T13:13:25;17.70;99.90
20827;DHT22;10574;52.508;13.236;2022-10-31T13:21:42;17.40;99.90
20827;DHT22;10574;52.508;13.236;2022-10-31T13:24:23;17.30;99.90
20827;DHT22;10574;52.508;13.236;2022-10-31T13:26:53;17.30;99.90
20827;DHT22;10574;52.508;13.236;2022-10-31T13:29:31;17.20;99.90
20827;DHT22;10574;52.508;13.236;2022-10-31T13:32:07;17.10;99.90
20827;DHT22;10574;52.508;13.236;2022-10-31T13:34:46;16.90;99.90
20827;DHT22;10574;52.508;13.236;2022-10-31T13:42:57;16.80;99.90
20827;DHT22;10574;52.508;13.236;2022-10-31T13:45:25;16.80;99.90
20827;DHT22;10574;52.508;13.236;2022-10-31T13:50:59;16.70;99.90
20827;DHT22;10574;52.508;13.236;2022-10-31T13:53:42;16.70;99.90
20827;DHT22;10574;52.508;13.236;2022-10-31T13:56:17;16.60;99.90
20827;DHT22;10574;52.508;13.236;2022-10-31T14:02:12;16.20;99.90
20827;DHT22;10574;52.508;13.236;2022-10-31T14:04:56;16.00;99.90
20827;DHT22;10574;52.508;13.236;2022-10-31T14:07:08;15.80;99.90
20827;DHT22;10574;52.508;13.236;2022-10-31T14:12:29;15.60;99.90
20827;DHT22;10574;52.508;13.236;2022-10-31T14:14:59;15.60;99.90
20827;DHT22;10574;52.508;13.236;2022-10-31T14:17:28;15.60;99.90
20827;DHT22;10574;52.508;13.236;2022-10-31T14:20:02;15.60;99.90
20827;DHT22;10574;52.508;13.236;2022-10-31T14:22:31;15.50;99.90
20827;DHT22;10574;52.508;13.236;2022-10-31T14:24:59;15.30;99.90
20827;DHT22;10574;52.508;13.236;2022-10-31T14:30:06;15.20;99.90
20827;DHT22;10574;52.508;13.236;2022-10-31T14:32:28;15.20;99.90
20827;DHT22;10574;52.508;13.236;2022-10-31T14:34:57;15.20;99.90
20827;DHT22;10574;52.508;13.236;2022-10-31T14:43:10;15.10;99.90
20827;DHT22;10574;52.508;13.236;2022-10-31T14:48:49;15.10;99.90
20827;DHT22;10574;52.508;13.236;2022-10-31T14:51:22;15.10;99.90
20827;DHT22;10574;52.508;13.236;2022-10-31T14:53:55;15.10;99.90
20827;DHT22;10574;52.508;13.236;2022-10-31T14:56:26;15.00;99.90
20827;DHT22;10574;52.508;13.236;2022-10-31T14:58:56;14.90;99.90
20827;DHT22;10574;52.508;13.236;2022-10-31T15:01:30;14.90;99.90
20827;DHT22;10574;52.508;13.236;2022-10-31T15:04:22;14.80;99.90
20827;DHT22;10574;52.508;13.236;2022-10-31T15:06:30;14.80;99.90
20827;DHT22;10574;52.508;13.236;2022-10-31T15:08:59;14.80;99.90
20827;DHT22;10574;52.508;13.236;2022-10-31T15:11:27;14.60;99.90
20827;DHT22;10574;52.508;13.236;2022-10-31T15:13:57;14.60;99.90
20827;DHT22;10574;52.508;13.236;2022-10-31T15:16:30;14.60;99.90
20827;DHT22;10574;52.508;13.236;2022-10-31T15:18:59;14.60;99.90
20827;DHT22;10574;52.508;13.236;2022-10-31T15:21:28;14.60;99.90
20827;DHT22;10574;52.508;13.236;2022-10-31T15:23:58;14.60;99.90
20827;DHT22;10574;52.508;13.236;2022-10-31T15:26:39;14.60;99.90
20827;DHT22;10574;52.508;13.236;2022-10-31T15:29:20;14.60;99.90
20827;DHT22;10574;52.508;13.236;2022-10-31T15:31:58;14.60;99.90
20827;DHT22;10574;52.508;13.236;2022-10-31T15:36:59;14.60;99.90
20827;DHT22;10574;52.508;13.236;2022-10-31T15:39:27;14.60;99.90
20827;DHT22;10574;52.508;13.236;2022-10-31T15:41:56;14.60;99.90
20827;DHT22;10574;52.508;13.236;2022-10-31T15:44:37;14.60;99.90
20827;DHT22;10574;52.508;13.236;2022-10-31T15:47:06;14.60;99.90
20827;DHT22;10574;52.508;13.236;2022-10-31T15:49:46;14.50;99.90
20827;DHT22;10574;52.508;13.236;2022-10-31T15:52:21;14.50;99.90
20827;DHT22;10574;52.508;13.236;2022-10-31T15:54:49;14.40;99.90
20827;DHT22;10574;52.508;13.236;2022-10-31T15:57:17;14.40;99.90
20827;DHT22;10574;52.508;13.236;2022-10-31T15:59:47;14.40;99.90
20827;DHT22;10574;52.508;13.236;2022-10-31T16:02:21;14.30;99.90
20827;DHT22;10574;52.508;13.236;2022-10-31T16:05:00;14.20;99.90
20827;DHT22;10574;52.508;13.236;2022-10-31T16:07:29;14.20;99.90
20827;DHT22;10574;52.508;13.236;2022-10-31T16:10:01;14.10;99.90
20827;DHT22;10574;52.508;13.236;2022-10-31T16:12:36;14.00;99.90
20827;DHT22;10574;52.508;13.236;2022-10-31T16:15:05;13.90;99.90
20827;DHT22;10574;52.508;13.236;2022-10-31T16:17:34;13.80;99.90
20827;DHT22;10574;52.508;13.236;2022-10-31T16:20:04;13.70;99.90
20827;DHT22;10574;52.508;13.236;2022-10-31T16:22:38;13.70;99.90
20827;DHT22;10574;52.508;13.236;2022-10-31T16:25:11;13.70;99.90
20827;DHT22;10574;52.508;13.236;2022-10-31T16:27:39;13.70;99.90
20827;DHT22;10574;52.508;13.236;2022-10-31T16:32:59;13.50;99.90
20827;DHT22;10574;52.508;13.236;2022-10-31T16:35:36;13.50;99.90
20827;DHT22;10574;52.508;13.236;2022-10-31T16:38:04;13.60;99.90
20827;DHT22;10574;52.508;13.236;2022-10-31T16:40:32;13.50;99.90
20827;DHT22;10574;52.508;13.236;2022-10-31T16:43:01;13.50;99.90
20827;DHT22;10574;52.508;13.236;2022-10-31T16:45:31;13.50;99.90
20827;DHT22;10574;52.508;13.236;2022-10-31T16:48:04;13.50;99.90
20827;DHT22;10574;52.508;13.236;2022-10-31T16:50:32;13.60;99.90
20827;DHT22;10574;52.508;13.236;2022-10-31T16:53:00;13.60;99.90
20827;DHT22;10574;52.508;13.236;2022-10-31T16:55:28;13.50;99.90
20827;DHT22;10574;52.508;13.236;2022-10-31T16:57:57;13.50;99.90
20827;DHT22;10574;52.508;13.236;2022-10-31T17:00:26;13.50;99.90
20827;DHT22;10574;52.508;13.236;2022-10-31T17:03:00;13.50;99.90
20827;DHT22;10574;52.508;13.236;2022-10-31T17:05:33;13.40;99.90
20827;DHT22;10574;52.508;13.236;2022-10-31T17:07:59;13.40;99.90
20827;DHT22;10574;52.508;13.236;2022-10-31T17:10:26;13.30;99.90
20827;DHT22;10574;52.508;13.236;2022-10-31T17:12:55;13.10;99.90
20827;DHT22;10574;52.508;13.236;2022-10-31T17:15:25;13.10;99.90
20827;DHT22;10574;52.508;13.236;2022-10-31T17:17:54;13.10;99.90
20827;DHT22;10574;52.508;13.236;2022-10-31T17:20:27;13.00;99.90
20827;DHT22;10574;52.508;13.236;2022-10-31T17:22:58;13.10;99.90
20827;DHT22;10574;52.508;13.236;2022-10-31T17:25:28;13.10;99.90
20827;DHT22;10574;52.508;13.236;2022-10-31T17:27:58;13.10;99.90
20827;DHT22;10574;52.508;13.236;2022-10-31T17:30:26;13.10;99.90